Warning: fopen(/var/www/metroair/shared/private/wxdata/metar/AVWX/metar_LSGG): failed to open stream: Permission denied in /var/www/metroair/shared/private/library/orig_library/lib_airport.php on line 346

Warning: fwrite() expects parameter 1 to be resource, boolean given in /var/www/metroair/shared/private/library/orig_library/lib_airport.php on line 347

Warning: fclose() expects parameter 1 to be resource, boolean given in /var/www/metroair/shared/private/library/orig_library/lib_airport.php on line 348

Warning: fopen(/var/www/metroair/shared/private/wxdata/TAF/AVWX/taf_LSGG): failed to open stream: Permission denied in /var/www/metroair/shared/private/library/orig_library/lib_airport.php on line 533

Warning: fwrite() expects parameter 1 to be resource, boolean given in /var/www/metroair/shared/private/library/orig_library/lib_airport.php on line 534

Warning: fclose() expects parameter 1 to be resource, boolean given in /var/www/metroair/shared/private/library/orig_library/lib_airport.php on line 535

MET6438 - Manchester to Geneva

Boeing 737-800
G-FLII - Fly UK
1 hr 35 mins
537 nm
Fly UK Codeshare - SU | M | W | F

Departure

Departing from
Manchester (MAN)
Departure gate
Scheduled Departure
GMT 1515
Local 1515
METAR EGCC 220550Z AUTO 29011KT 9999 -RA OVC018/// //////TCU 08/07 Q1005 NOSIG
TAF TAF AMD EGCC 220615Z 2206/2312 27013KT 6000 -RA BKN009 BECMG 2206/2209 9999 NSW FEW015 SCT030 TEMPO 2206/2217 28016G26KT BECMG 2217/2220 18009KT TEMPO 2217/2312 7000 RA BKN012 PROB40 TEMPO 2221/2302 4000 +RA BKN007 BECMG 2300/2303 22020G30KT BECMG 2306/23
  • No charts available

Arrival

Arriving at
Geneva (GVA)
Arrival gate
15
Scheduled Arrival
GMT 1650
Local 1750
METAR LSGG 220620Z 21006KT 180V240 9999 FEW030 07/06 Q1021 NOSIG
TAF TAF LSGG 220525Z 2206/2312 23005KT 9999 BKN040 TX15/2215Z TN08/2206Z TN02/2306Z BECMG 2208/2211 23012KT FEW050 BECMG 2218/2221 VRB03KT CAVOK BECMG 2306/2309 23015KT

Route Map

Planning Resources

EGCC UTELA CLM BRY LAULY TUNOR DJL KOVAR PAS LSGG
EGCC EG74 LSH ABB DIJ LSGG
SANBA UN859 HON UL10 BPK N601 DET UL6 DVR UL9 KONAN UL607 KOK UM150 DIK UN852 MOROK UZ24 AKITO
LIST2Y LISTO L612 HON UL15 FINMA UM605 WOD UL612 BOGNA L612 BENBO UL612 OGULO UQ223 LUSAR LUSA1N
SANB1Y SANBA UN859 HON UL612 OGULO UQ223 LUSAR LUSA1N
Route:
OFP Layout:
Units:
Detailed Navlog:
ETOPS Planning:
Plan Stepclimbs:
Runway Analysis:
Include NOTAMS:
FIR NOTAMS:
Flight Maps:

Return Flights

MET6439 (Operated by Fly UK)
Boeing 737-800
1720 GMT

Popularity

Hub Current Bids PiReps this month Total PiReps
KMCI 0 0 1
KLAX 0 0 2
KBOS 0 0 0